Time;durP1;ratioP1;P1;durP2;ratioP2;P2;SDS_P1;SDS_P2;PMS_P1;PMS_P2;Temp;Humidity;BMP_temperature;BMP_pressure;BME280_temperature;BME280_humidity;BME280_pressure;Samples;Min_cycle;Max_cycle;Signal;HPM_P1;HPM_P2
2022/12/05 00:00:01;;;;;;;10.93;8.87;;;;;;;4.13;100.00;96483.56;5060885;28;20210;-63
2022/12/05 00:02:28;;;;;;;14.17;9.47;;;;;;;4.08;100.00;96480.44;5055847;28;20210;-63
2022/12/05 00:04:54;;;;;;;12.23;9.60;;;;;;;4.10;100.00;96489.03;5054814;28;20551;-64
2022/12/05 00:07:21;;;;;;;11.37;9.73;;;;;;;4.04;100.00;96474.56;5065132;28;20207;-65
2022/12/05 00:09:47;;;;;;;13.47;9.93;;;;;;;4.10;100.00;96479.41;5054629;28;20214;-64
2022/12/05 00:12:15;;;;;;;14.90;10.70;;;;;;;4.14;100.00;96469.56;5054678;28;20534;-64
2022/12/05 00:14:42;;;;;;;14.67;11.17;;;;;;;4.20;100.00;96469.09;5054612;28;20642;-64
2022/12/05 00:17:08;;;;;;;13.77;10.43;;;;;;;4.20;100.00;96482.19;5054821;28;20202;-65
2022/12/05 00:19:35;;;;;;;13.07;10.23;;;;;;;4.27;100.00;96483.44;5054385;28;20222;-64
2022/12/05 00:22:01;;;;;;;13.60;10.23;;;;;;;4.23;100.00;96487.22;5055329;28;20198;-64
2022/12/05 00:24:28;;;;;;;12.90;9.40;;;;;;;4.23;100.00;96502.91;5063635;28;20203;-64
2022/12/05 00:26:55;;;;;;;11.73;9.87;;;;;;;4.25;100.00;96498.41;5054414;28;20632;-64
2022/12/05 00:29:23;;;;;;;13.97;10.83;;;;;;;4.25;100.00;96488.75;5054536;28;20198;-63
2022/12/05 00:31:49;;;;;;;13.67;10.70;;;;;;;4.25;100.00;96490.56;5059449;28;20191;-64
2022/12/05 00:34:16;;;;;;;14.17;10.47;;;;;;;4.29;100.00;96489.38;5070794;28;20227;-64
2022/12/05 00:36:42;;;;;;;15.73;11.27;;;;;;;4.32;100.00;96499.66;5065758;28;20257;-64
2022/12/05 00:39:13;;;;;;;13.23;10.67;;;;;;;4.30;100.00;96512.00;5058595;28;20230;-62
2022/12/05 00:41:39;;;;;;;15.33;11.53;;;;;;;4.34;100.00;96523.94;5066745;28;20214;-63
2022/12/05 00:44:06;;;;;;;15.17;11.53;;;;;;;4.28;100.00;96534.84;5060059;28;20629;-63
2022/12/05 00:46:34;;;;;;;13.80;10.37;;;;;;;4.32;100.00;96525.84;5058300;28;20547;-63
2022/12/05 00:49:02;;;;;;;12.73;10.07;;;;;;;4.33;100.00;96530.94;5058475;28;20206;-63
2022/12/05 00:51:30;;;;;;;14.70;11.60;;;;;;;4.39;100.00;96527.88;5058347;28;20211;-63
2022/12/05 00:53:58;;;;;;;14.20;10.70;;;;;;;4.37;100.00;96527.16;5057937;28;20226;-64
2022/12/05 00:56:26;;;;;;;15.87;11.47;;;;;;;4.40;100.00;96529.56;5059672;28;20207;-64
2022/12/05 00:58:54;;;;;;;13.03;10.63;;;;;;;4.44;100.00;96520.56;5058403;28;20211;-65
2022/12/05 01:01:23;;;;;;;13.63;10.93;;;;;;;4.41;100.00;96510.31;5066505;28;20202;-63
2022/12/05 01:03:52;;;;;;;16.27;10.93;;;;;;;4.42;100.00;96511.16;5058126;28;20218;-64
2022/12/05 01:06:19;;;;;;;15.13;11.57;;;;;;;4.46;100.00;96516.03;5058162;28;20236;-64
2022/12/05 01:08:45;;;;;;;14.47;11.03;;;;;;;4.43;100.00;96518.03;5058559;28;20624;-64
2022/12/05 01:11:15;;;;;;;14.73;10.70;;;;;;;4.49;100.00;96528.09;5058223;28;20207;-64
2022/12/05 01:13:41;;;;;;;12.90;11.30;;;;;;;4.51;100.00;96523.56;5058258;28;20555;-64
2022/12/05 01:16:14;;;;;;;15.63;11.40;;;;;;;4.46;100.00;96512.59;5059440;28;20234;-64
2022/12/05 01:18:41;;;;;;;14.27;11.13;;;;;;;4.48;100.00;96515.94;5060798;28;20573;-64
2022/12/05 01:21:09;;;;;;;13.23;10.90;;;;;;;4.52;100.00;96517.41;5062533;28;20202;-65
2022/12/05 01:23:36;;;;;;;15.40;10.97;;;;;;;4.47;100.00;96529.97;5061986;28;20241;-65
2022/12/05 01:26:06;;;;;;;13.83;11.30;;;;;;;4.46;100.00;96528.31;5061593;28;20252;-64
2022/12/05 01:28:32;;;;;;;13.93;11.20;;;;;;;4.42;100.00;96534.72;5062645;28;20505;-64
2022/12/05 01:30:59;;;;;;;15.37;11.13;;;;;;;4.41;100.00;96546.13;5060021;28;20203;-63
2022/12/05 01:33:26;;;;;;;17.10;11.83;;;;;;;4.37;100.00;96552.50;5070485;28;20214;-68
2022/12/05 01:35:53;;;;;;;15.07;11.30;;;;;;;4.40;100.00;96554.91;5065109;28;20219;-65
2022/12/05 01:38:21;;;;;;;15.87;11.30;;;;;;;4.41;100.00;96557.44;5061153;28;20582;-64
2022/12/05 01:40:47;;;;;;;14.10;11.60;;;;;;;4.37;100.00;96550.72;5058454;28;20297;-64
2022/12/05 01:43:15;;;;;;;16.20;11.70;;;;;;;4.43;100.00;96558.16;5066408;28;20203;-63
2022/12/05 01:45:44;;;;;;;15.20;10.90;;;;;;;4.46;100.00;96559.75;5057365;28;20203;-63
2022/12/05 01:48:13;;;;;;;13.23;10.50;;;;;;;4.43;100.00;96555.53;5057009;28;20211;-64
2022/12/05 01:50:40;;;;;;;15.50;11.67;;;;;;;4.39;100.00;96553.25;5057213;28;20219;-63
2022/12/05 01:53:06;;;;;;;15.77;11.70;;;;;;;4.38;100.00;96565.50;5056924;28;20651;-63
2022/12/05 01:55:35;;;;;;;14.60;11.03;;;;;;;4.47;100.00;96561.38;5058733;28;20679;-64
2022/12/05 01:58:02;;;;;;;16.67;12.27;;;;;;;4.49;100.00;96559.53;5058793;28;20207;-62
2022/12/05 02:00:28;;;;;;;16.43;11.87;;;;;;;4.52;100.00;96548.81;5057175;28;20206;-62
2022/12/05 02:02:57;;;;;;;15.03;10.83;;;;;;;4.51;100.00;96558.47;5061493;28;20203;-62
2022/12/05 02:05:27;;;;;;;13.37;11.13;;;;;;;4.51;100.00;96557.63;5056714;28;20214;-62
2022/12/05 02:07:54;;;;;;;13.77;11.33;;;;;;;4.53;100.00;96555.75;5057182;28;20207;-62
2022/12/05 02:10:21;;;;;;;15.07;11.13;;;;;;;4.50;100.00;96542.84;5056455;28;20211;-62
2022/12/05 02:12:50;;;;;;;13.10;10.73;;;;;;;4.47;100.00;96548.28;5056676;28;20210;-61
2022/12/05 02:15:29;;;;;;;16.73;11.53;;;;;;;4.40;100.00;96554.91;5056830;28;20226;-62
2022/12/05 02:18:04;;;;;;;15.13;11.77;;;;;;;4.37;100.00;96549.91;5056731;28;20198;-62
2022/12/05 02:20:39;;;;;;;13.17;10.83;;;;;;;4.39;100.00;96553.25;5056765;28;20206;-62
2022/12/05 02:23:50;;;;;;;14.10;11.47;;;;;;;4.33;100.00;96556.28;5076148;28;20202;-62
2022/12/05 02:26:42;;;;;;;15.63;11.37;;;;;;;4.34;100.00;96550.94;5055908;28;20207;-62
2022/12/05 02:29:51;;;;;;;13.50;11.07;;;;;;;4.37;100.00;96555.13;5056535;28;20218;-62
2022/12/05 02:32:25;;;;;;;13.13;11.13;;;;;;;4.40;100.00;96553.13;5056687;28;20643;-62
2022/12/05 02:34:57;;;;;;;19.43;13.90;;;;;;;4.41;100.00;96559.22;5067657;28;20215;-62
2022/12/05 02:37:28;;;;;;;18.33;13.07;;;;;;;4.43;100.00;96562.53;5057540;28;20238;-62
2022/12/05 02:40:03;;;;;;;17.70;12.27;;;;;;;4.49;100.00;96562.97;5056065;28;20210;-61
2022/12/05 02:42:33;;;;;;;14.80;10.87;;;;;;;4.52;100.00;96567.16;5066079;28;20190;-62
2022/12/05 02:45:02;;;;;;;12.83;10.87;;;;;;;4.55;100.00;96564.31;5056226;28;20207;-62
2022/12/05 02:47:33;;;;;;;15.77;11.40;;;;;;;4.58;100.00;96571.94;5055988;28;20264;-62
2022/12/05 02:50:00;;;;;;;14.50;11.07;;;;;;;4.55;100.00;96569.56;5056180;28;20230;-62
2022/12/05 02:52:27;;;;;;;14.07;11.47;;;;;;;4.54;100.00;96570.50;5056161;28;20211;-62
2022/12/05 02:54:55;;;;;;;15.27;11.10;;;;;;;4.53;100.00;96560.97;5056410;28;20215;-62
2022/12/05 02:57:22;;;;;;;13.77;11.00;;;;;;;4.53;100.00;96560.97;5069695;28;20215;-62
2022/12/05 02:59:48;;;;;;;17.60;12.03;;;;;;;4.56;100.00;96559.91;5077775;28;20213;-62
2022/12/05 03:02:23;;;;;;;13.53;10.93;;;;;;;4.49;100.00;96562.13;5058754;28;20674;-62
2022/12/05 03:04:51;;;;;;;13.40;11.63;;;;;;;4.51;100.00;96562.84;5062884;28;20202;-62
2022/12/05 03:07:19;;;;;;;15.97;11.83;;;;;;;4.55;100.00;96564.31;5073049;28;20207;-62
2022/12/05 03:09:49;;;;;;;12.50;10.83;;;;;;;4.57;100.00;96567.66;5067854;28;20211;-62
2022/12/05 03:12:19;;;;;;;13.07;10.57;;;;;;;4.58;100.00;96552.78;5055903;28;20211;-62
2022/12/05 03:14:49;;;;;;;14.97;10.60;;;;;;;4.48;100.00;96555.22;5055756;28;20234;-63
2022/12/05 03:17:22;;;;;;;12.83;10.07;;;;;;;4.39;100.00;96540.16;5055753;28;20544;-62
2022/12/05 03:19:55;;;;;;;13.27;10.67;;;;;;;4.43;100.00;96539.81;5061285;28;20195;-62
2022/12/05 03:22:27;;;;;;;12.37;10.80;;;;;;;4.48;100.00;96542.13;5058065;28;20206;-62
2022/12/05 03:24:54;;;;;;;13.17;10.60;;;;;;;4.48;100.00;96544.75;5056360;28;20219;-62
2022/12/05 03:27:24;;;;;;;12.83;10.33;;;;;;;4.46;100.00;96538.78;5057452;28;20207;-63
2022/12/05 03:29:54;;;;;;;12.23;10.93;;;;;;;4.48;100.00;96542.97;5060925;28;20195;-62
2022/12/05 03:32:24;;;;;;;13.53;10.17;;;;;;;4.49;100.00;96547.25;5057309;28;20218;-62
2022/12/05 03:35:01;;;;;;;15.67;11.83;;;;;;;4.52;100.00;96543.59;5070613;28;20237;-63
2022/12/05 03:37:35;;;;;;;13.37;11.20;;;;;;;4.50;100.00;96550.69;5057411;28;20238;-62
2022/12/05 03:40:06;;;;;;;13.20;11.30;;;;;;;4.54;100.00;96544.31;5055691;28;20203;-62
2022/12/05 03:42:35;;;;;;;14.10;11.00;;;;;;;4.48;100.00;96552.59;5066012;28;20210;-64
2022/12/05 03:45:06;;;;;;;12.57;10.13;;;;;;;4.53;100.00;96554.91;5056455;28;20644;-62
2022/12/05 03:47:39;;;;;;;11.17;9.87;;;;;;;4.50;100.00;96563.78;5056874;28;20213;-63
2022/12/05 03:50:12;;;;;;;14.33;10.50;;;;;;;4.50;100.00;96563.78;5071395;28;20194;-63
2022/12/05 03:52:43;;;;;;;12.20;10.43;;;;;;;4.54;100.00;96562.63;5059192;28;20217;-62
2022/12/05 03:55:12;;;;;;;12.43;10.13;;;;;;;4.52;100.00;96564.53;5059846;28;20233;-63
2022/12/05 03:57:43;;;;;;;14.43;10.60;;;;;;;4.51;100.00;96566.31;5062558;28;20234;-61
2022/12/05 04:00:11;;;;;;;14.10;11.70;;;;;;;4.55;100.00;96566.94;5057723;28;20211;-62
2022/12/05 04:02:44;;;;;;;14.10;11.17;;;;;;;4.56;100.00;96559.91;5057937;28;20210;-63
2022/12/05 04:05:14;;;;;;;14.33;10.80;;;;;;;4.61;100.00;96568.25;5055475;28;20257;-63
2022/12/05 04:07:42;;;;;;;14.07;11.40;;;;;;;4.63;100.00;96567.25;5056641;28;20211;-63
2022/12/05 04:10:13;;;;;;;13.60;11.33;;;;;;;4.68;100.00;96574.75;5054717;28;20214;-62
2022/12/05 04:12:41;;;;;;;14.33;10.80;;;;;;;4.68;100.00;96575.59;5054911;28;20212;-62
2022/12/05 04:15:12;;;;;;;13.90;10.80;;;;;;;4.74;100.00;96585.66;5054600;28;20219;-63
2022/12/05 04:17:42;;;;;;;13.83;10.47;;;;;;;4.78;100.00;96581.84;5054958;28;20539;-62
2022/12/05 04:22:59;;;;;;;11.33;9.47;;;;;;;4.91;100.00;96581.81;5055865;28;20249;-62
2022/12/05 04:25:32;;;;;;;10.80;9.40;;;;;;;4.93;100.00;96574.66;5054375;28;20225;-62
2022/12/05 04:28:11;;;;;;;10.77;8.87;;;;;;;4.95;100.00;96583.28;5054631;28;20198;-62
2022/12/05 04:30:40;;;;;;;13.13;9.53;;;;;;;4.96;100.00;96595.41;5054635;28;20202;-63
2022/12/05 04:33:11;;;;;;;11.67;9.27;;;;;;;4.94;100.00;96592.91;5061419;28;20206;-63
2022/12/05 04:35:42;;;;;;;11.13;8.67;;;;;;;4.97;100.00;96600.56;5073314;28;20225;-62
2022/12/05 04:38:10;;;;;;;12.43;9.80;;;;;;;4.97;100.00;96613.66;5054248;28;20253;-62
2022/12/05 04:40:39;;;;;;;10.70;9.00;;;;;;;4.98;100.00;96617.97;5054477;28;20217;-63
2022/12/05 04:43:06;;;;;;;11.50;9.20;;;;;;;5.05;100.00;96620.13;5064610;28;20199;-62
2022/12/05 04:45:34;;;;;;;11.40;9.23;;;;;;;5.03;100.00;96621.06;5054762;28;20199;-62
2022/12/05 04:48:04;;;;;;;10.73;8.90;;;;;;;5.11;100.00;96638.03;5058659;28;20237;-62
2022/12/05 04:50:33;;;;;;;10.93;9.23;;;;;;;5.14;100.00;96638.66;5054391;28;20225;-62
2022/12/05 04:53:02;;;;;;;11.67;8.97;;;;;;;5.10;100.00;96646.88;5054323;28;20211;-62
2022/12/05 04:55:30;;;;;;;10.30;8.93;;;;;;;5.10;100.00;96633.75;5053935;28;20223;-63
2022/12/05 04:58:03;;;;;;;11.83;9.47;;;;;;;5.06;100.00;96621.81;5053994;28;20547;-62
2022/12/05 05:00:30;;;;;;;11.63;9.30;;;;;;;5.11;100.00;96628.38;5055481;28;20200;-62
2022/12/05 05:03:04;;;;;;;9.50;8.13;;;;;;;5.08;100.00;96623.38;5063603;28;20207;-62
2022/12/05 05:05:32;;;;;;;10.93;8.73;;;;;;;5.12;100.00;96642.34;5054015;28;20640;-62
2022/12/05 05:08:00;;;;;;;9.97;8.23;;;;;;;5.11;100.00;96649.34;5054038;28;20210;-61
2022/12/05 05:10:32;;;;;;;10.33;8.00;;;;;;;5.06;100.00;96642.78;5061598;28;20643;-62
2022/12/05 05:12:59;;;;;;;10.10;8.10;;;;;;;5.14;100.00;96646.50;5058859;28;20519;-62
2022/12/05 05:15:25;;;;;;;11.67;8.57;;;;;;;5.13;100.00;96639.63;5054301;28;20226;-62
2022/12/05 05:17:51;;;;;;;10.87;8.93;;;;;;;5.11;100.00;96632.78;5054208;28;20407;-63
2022/12/05 05:20:25;;;;;;;10.10;8.37;;;;;;;5.05;100.00;96626.22;5054178;28;20215;-62
2022/12/05 05:22:53;;;;;;;11.00;8.20;;;;;;;5.08;100.00;96633.84;5071867;28;20210;-63
2022/12/05 05:25:22;;;;;;;10.73;8.10;;;;;;;5.03;100.00;96639.41;5074216;28;20519;-63
2022/12/05 05:27:50;;;;;;;10.93;8.70;;;;;;;5.06;100.00;96648.03;5069372;28;20211;-62
2022/12/05 05:30:17;;;;;;;9.97;8.10;;;;;;;4.99;100.00;96632.72;5057792;28;20210;-62
2022/12/05 05:32:44;;;;;;;12.97;9.10;;;;;;;4.97;100.00;96634.63;5060948;28;20213;-63
2022/12/05 05:35:11;;;;;;;10.97;9.00;;;;;;;5.01;100.00;96625.59;5067549;28;20223;-63
2022/12/05 05:37:38;;;;;;;9.90;8.50;;;;;;;5.00;100.00;96626.53;5059799;28;20239;-62
2022/12/05 05:40:06;;;;;;;10.27;8.40;;;;;;;5.06;100.00;96627.91;5058391;28;20210;-62
2022/12/05 05:42:34;;;;;;;10.00;8.33;;;;;;;5.08;100.00;96630.41;5069329;28;20231;-62
2022/12/05 05:45:00;;;;;;;8.13;7.23;;;;;;;5.07;100.00;96623.47;5065931;28;20195;-63
2022/12/05 05:47:27;;;;;;;8.57;6.77;;;;;;;5.09;100.00;96632.06;5061924;28;20206;-63
2022/12/05 05:49:54;;;;;;;9.33;7.20;;;;;;;5.17;100.00;96637.63;5070139;28;20202;-62
2022/12/05 05:52:20;;;;;;;6.80;5.73;;;;;;;5.19;100.00;96643.56;5058834;28;20659;-62
2022/12/05 05:54:47;;;;;;;6.93;6.00;;;;;;;5.18;100.00;96647.13;5059079;28;20215;-63
2022/12/05 05:57:13;;;;;;;8.07;5.97;;;;;;;5.17;100.00;96646.31;5057192;28;20227;-64
2022/12/05 05:59:41;;;;;;;6.60;5.87;;;;;;;5.17;100.00;96661.22;5057125;28;20218;-62
2022/12/05 06:02:08;;;;;;;5.80;5.20;;;;;;;5.20;100.00;96660.97;5058344;28;20218;-63
2022/12/05 06:04:35;;;;;;;5.70;5.10;;;;;;;5.16;100.00;96659.53;5058186;28;20207;-62
2022/12/05 06:07:01;;;;;;;5.33;4.83;;;;;;;5.19;100.00;96664.53;5058486;28;20206;-62
2022/12/05 06:09:28;;;;;;;5.33;4.83;;;;;;;5.15;100.00;96652.59;5060180;28;20204;-62
2022/12/05 06:11:54;;;;;;;5.40;4.90;;;;;;;5.17;100.00;96648.09;5058814;28;20210;-62
2022/12/05 06:14:21;;;;;;;5.57;5.00;;;;;;;5.14;100.00;96645.66;5059563;28;20214;-59
2022/12/05 06:16:49;;;;;;;5.13;4.63;;;;;;;5.12;100.00;96647.56;5078317;28;20519;-62
2022/12/05 06:19:15;;;;;;;4.27;3.97;;;;;;;5.13;100.00;96638.78;5075748;28;20544;-59
2022/12/05 06:21:42;;;;;;;4.83;4.40;;;;;;;5.16;100.00;96643.78;5057879;28;20203;-61
2022/12/05 06:24:09;;;;;;;5.20;4.73;;;;;;;5.11;100.00;96646.72;5065464;28;20213;-61
2022/12/05 06:26:35;;;;;;;4.17;3.77;;;;;;;5.07;100.00;96647.06;5055522;28;20255;-61
2022/12/05 06:29:01;;;;;;;5.17;4.33;;;;;;;5.05;100.00;96636.69;5055128;28;20524;-62
2022/12/05 06:31:30;;;;;;;4.27;3.87;;;;;;;5.03;100.00;96646.44;5056326;28;20214;-61
2022/12/05 06:34:01;;;;;;;4.73;4.07;;;;;;;5.03;100.00;96643.00;5055076;28;20652;-62
2022/12/05 06:36:28;;;;;;;6.23;5.63;;;;;;;5.08;100.00;96652.19;5066625;28;20211;-62
2022/12/05 06:38:56;;;;;;;4.43;4.03;;;;;;;5.08;100.00;96660.06;5064261;28;20195;-62
2022/12/05 06:41:23;;;;;;;4.27;3.87;;;;;;;5.17;100.00;96662.06;5066173;28;20202;-62
2022/12/05 06:43:52;;;;;;;3.87;3.40;;;;;;;5.29;100.00;96671.63;5065439;28;20533;-62
2022/12/05 06:46:19;;;;;;;3.73;3.40;;;;;;;5.34;100.00;96673.94;5071163;28;20203;-62
2022/12/05 06:48:46;;;;;;;3.53;3.23;;;;;;;5.37;100.00;96671.09;5072413;28;20213;-62
2022/12/05 06:51:16;;;;;;;3.40;3.10;;;;;;;5.39;100.00;96667.41;5066206;28;20206;-62
2022/12/05 06:53:43;;;;;;;3.70;3.40;;;;;;;5.42;100.00;96682.91;5062611;28;20218;-61
2022/12/05 06:56:11;;;;;;;3.43;3.13;;;;;;;5.49;100.00;96696.44;5065475;28;20223;-62
2022/12/05 06:58:37;;;;;;;3.57;3.27;;;;;;;5.51;100.00;96681.41;5059622;28;20623;-62
2022/12/05 07:03:48;;;;;;;5.57;4.57;;;;;;;5.57;100.00;96695.88;5068996;28;20291;-62
2022/12/05 07:06:17;;;;;;;3.67;3.40;;;;;;;5.59;100.00;96704.47;5055783;28;20203;-62
2022/12/05 07:08:44;;;;;;;3.37;3.07;;;;;;;5.58;100.00;96708.88;5062404;28;20217;-62
2022/12/05 07:11:11;;;;;;;2.40;2.20;;;;;;;5.57;100.00;96715.06;5062190;28;20199;-62
2022/12/05 07:13:37;;;;;;;2.67;2.47;;;;;;;5.55;100.00;96721.38;5055826;28;20257;-62
2022/12/05 07:16:05;;;;;;;2.23;2.03;;;;;;;5.53;100.00;96720.66;5068778;28;20693;-61
2022/12/05 07:18:32;;;;;;;2.07;1.97;;;;;;;5.47;100.00;96724.53;5063069;28;20199;-62
2022/12/05 07:21:00;;;;;;;2.33;2.13;;;;;;;5.42;100.00;96724.06;5062139;28;20659;-61
2022/12/05 07:23:28;;;;;;;2.23;2.13;;;;;;;5.32;100.00;96738.75;5055693;28;20626;-61
2022/12/05 07:25:56;;;;;;;1.97;1.87;;;;;;;5.30;100.00;96743.28;5063421;28;20208;-62
2022/12/05 07:28:23;;;;;;;3.03;2.13;;;;;;;5.29;100.00;96739.81;5055592;28;20280;-62
2022/12/05 07:30:49;;;;;;;2.30;2.10;;;;;;;5.32;100.00;96728.25;5068839;28;20198;-62
2022/12/05 07:33:16;;;;;;;2.30;2.10;;;;;;;5.23;100.00;96728.91;5060944;28;20643;-62
2022/12/05 07:35:42;;;;;;;2.03;1.93;;;;;;;5.18;100.00;96715.28;5057040;28;20199;-61
2022/12/05 07:38:09;;;;;;;2.57;2.20;;;;;;;5.22;100.00;96722.00;5055083;28;20247;-61
2022/12/05 07:40:38;;;;;;;2.90;2.70;;;;;;;5.24;100.00;96722.75;5068419;28;20217;-62
2022/12/05 07:43:06;;;;;;;3.13;2.93;;;;;;;5.24;100.00;96726.19;5065400;28;20203;-61
2022/12/05 07:45:34;;;;;;;2.87;2.67;;;;;;;5.28;100.00;96750.41;5068318;28;20207;-61
2022/12/05 07:48:00;;;;;;;3.10;2.90;;;;;;;5.29;100.00;96754.69;5065416;28;20225;-61
2022/12/05 07:50:27;;;;;;;3.83;3.00;;;;;;;5.32;100.00;96765.81;5061505;28;20213;-61
2022/12/05 07:52:53;;;;;;;3.53;3.10;;;;;;;5.27;100.00;96756.59;5064746;28;20206;-62
2022/12/05 07:55:19;;;;;;;3.33;3.03;;;;;;;5.22;100.00;96761.31;5068444;28;20203;-62
2022/12/05 07:57:47;;;;;;;3.57;3.27;;;;;;;5.28;100.00;96771.41;5065523;28;20245;-61
2022/12/05 08:00:15;;;;;;;3.20;3.00;;;;;;;5.24;100.00;96772.56;5061570;28;20217;-62
2022/12/05 08:02:42;;;;;;;2.80;2.60;;;;;;;5.25;100.00;96784.69;5063712;28;20207;-61
2022/12/05 08:05:08;;;;;;;3.40;3.10;;;;;;;5.25;100.00;96789.94;5068082;28;20207;-62
2022/12/05 08:07:35;;;;;;;3.33;3.03;;;;;;;5.26;100.00;96771.50;5066405;28;20637;-63
2022/12/05 08:10:01;;;;;;;2.87;2.67;;;;;;;5.26;100.00;96765.41;5061584;28;20225;-61
2022/12/05 08:12:28;;;;;;;3.30;3.10;;;;;;;5.26;100.00;96770.66;5062705;28;20214;-64
2022/12/05 08:14:56;;;;;;;2.93;2.73;;;;;;;5.36;100.00;96763.81;5068527;28;20215;-62
2022/12/05 08:17:22;;;;;;;4.20;3.80;;;;;;;5.38;100.00;96769.78;5055035;28;20246;-62
2022/12/05 08:19:49;;;;;;;4.33;3.70;;;;;;;5.39;100.00;96766.19;5068494;28;20207;-62
2022/12/05 08:22:15;;;;;;;3.17;2.97;;;;;;;5.39;100.00;96767.03;5054880;28;20636;-62
2022/12/05 08:24:42;;;;;;;3.90;3.60;;;;;;;5.40;100.00;96767.88;5070515;28;20203;-62
2022/12/05 08:27:09;;;;;;;4.30;3.90;;;;;;;5.47;100.00;96771.75;5057190;28;20211;-63
2022/12/05 08:29:35;;;;;;;4.10;3.70;;;;;;;5.56;100.00;96775.53;5056739;28;20535;-62
2022/12/05 08:32:03;;;;;;;4.00;3.40;;;;;;;5.57;100.00;96791.13;5060148;28;20520;-63
2022/12/05 08:34:30;;;;;;;4.23;3.83;;;;;;;5.58;100.00;96792.81;5063358;28;20210;-62
2022/12/05 08:36:56;;;;;;;3.90;3.60;;;;;;;5.62;100.00;96794.28;5062039;28;20248;-62
2022/12/05 08:39:23;;;;;;;3.93;3.63;;;;;;;5.65;100.00;96794.06;5069473;28;20203;-63
2022/12/05 08:41:49;;;;;;;3.43;3.13;;;;;;;5.71;100.00;96793.63;5069674;28;20202;-62
2022/12/05 08:44:17;;;;;;;3.20;2.90;;;;;;;5.77;100.00;96787.94;5057181;28;20207;-62
2022/12/05 08:46:45;;;;;;;3.70;2.70;;;;;;;5.80;100.00;96792.97;5070065;28;20202;-62
2022/12/05 08:49:13;;;;;;;2.57;2.37;;;;;;;5.86;100.00;96803.06;5061649;28;20202;-63
2022/12/05 08:51:41;;;;;;;2.10;2.00;;;;;;;5.96;100.00;96808.47;5061209;28;20214;-62
2022/12/05 08:54:07;;;;;;;2.37;2.27;;;;;;;5.99;100.00;96814.34;5067004;28;20229;-62
2022/12/05 08:56:34;;;;;;;2.50;2.40;;;;;;;5.97;100.00;96824.13;5054213;28;20223;-62
2022/12/05 08:59:01;;;;;;;3.93;3.23;;;;;;;5.96;100.00;96824.22;5065727;28;20217;-62
2022/12/05 09:01:30;;;;;;;3.10;2.87;;;;;;;5.94;100.00;96821.72;5065137;28;20266;-62
2022/12/05 09:03:57;;;;;;;3.30;3.00;;;;;;;5.97;100.00;96818.88;5069720;28;20214;-62
2022/12/05 09:06:26;;;;;;;2.73;2.60;;;;;;;6.02;100.00;96807.19;5071043;28;20294;-62
2022/12/05 09:08:54;;;;;;;3.40;2.97;;;;;;;6.09;100.00;96803.19;5067392;28;20292;-62
2022/12/05 09:11:23;;;;;;;4.83;2.80;;;;;;;6.08;100.00;96791.00;5064716;28;20214;-61
2022/12/05 09:13:50;;;;;;;2.80;2.60;;;;;;;6.17;100.00;96796.41;5067960;28;20207;-62
2022/12/05 09:16:19;;;;;;;3.13;2.90;;;;;;;6.19;100.00;96802.41;5071292;28;20249;-62
2022/12/05 09:18:46;;;;;;;3.17;2.90;;;;;;;6.30;100.00;96799.81;5059137;28;20207;-62
2022/12/05 09:21:14;;;;;;;2.70;2.50;;;;;;;6.32;100.00;96794.44;5063119;28;20214;-62
2022/12/05 09:23:42;;;;;;;3.63;2.63;;;;;;;6.38;100.00;96800.06;5068181;28;20281;-62
2022/12/05 09:26:11;;;;;;;3.13;2.93;;;;;;;6.47;100.00;96819.59;5073482;28;20651;-62
2022/12/05 09:28:38;;;;;;;4.83;4.43;;;;;;;6.43;100.00;96829.47;5071661;28;20271;-62
2022/12/05 09:31:06;;;;;;;4.83;4.43;;;;;;;6.40;100.00;96827.09;5074723;28;20207;-62
2022/12/05 09:33:35;;;;;;;4.43;3.87;;;;;;;6.36;100.00;96836.13;5063991;28;20213;-62
2022/12/05 09:36:02;;;;;;;4.70;4.30;;;;;;;6.37;100.00;96842.22;5057212;28;20636;-61
2022/12/05 09:38:29;;;;;;;5.23;4.53;;;;;;;6.38;100.00;96842.09;5069973;28;20260;-61
2022/12/05 09:41:06;;;;;;;6.30;4.30;;;;;;;6.41;100.00;96846.31;5064012;28;20210;-62
2022/12/05 09:43:38;;;;;;;3.90;3.60;;;;;;;6.45;100.00;96842.47;5076056;28;20209;-62
2022/12/05 09:46:08;;;;;;;5.00;4.20;;;;;;;6.47;100.00;96845.84;5065071;28;20195;-62
2022/12/05 09:48:35;;;;;;;3.87;3.57;;;;;;;6.41;100.00;96847.13;5063839;28;20225;-62
2022/12/05 09:51:02;;;;;;;3.97;3.67;;;;;;;6.38;100.00;96839.47;5069099;28;20203;-62
2022/12/05 09:53:30;;;;;;;5.10;3.90;;;;;;;6.43;100.00;96828.63;5070300;28;20639;-62
2022/12/05 09:56:02;;;;;;;4.10;3.70;;;;;;;6.41;100.00;96825.31;5065610;28;20256;-62
2022/12/05 09:58:38;;;;;;;4.10;3.80;;;;;;;6.43;100.00;96829.47;5063660;28;20219;-62
2022/12/05 10:01:17;;;;;;;4.40;4.00;;;;;;;6.45;100.00;96826.72;5066685;28;20199;-62
2022/12/05 10:03:48;;;;;;;5.63;4.20;;;;;;;6.43;100.00;96828.63;5070413;28;20206;-62
2022/12/05 10:06:19;;;;;;;4.93;4.53;;;;;;;6.45;100.00;96827.56;5057259;28;20207;-61
2022/12/05 10:08:58;;;;;;;5.07;4.57;;;;;;;6.47;100.00;96840.59;5064631;28;20210;-62
2022/12/05 10:11:32;;;;;;;4.20;3.90;;;;;;;6.53;100.00;96834.88;5067153;28;20214;-62
2022/12/05 10:14:02;;;;;;;6.73;4.43;;;;;;;6.47;100.00;96824.84;5061727;28;20203;-62
2022/12/05 10:16:31;;;;;;;9.53;5.43;;;;;;;6.51;100.00;96826.28;5070619;28;20219;-61
2022/12/05 10:19:00;;;;;;;6.47;5.33;;;;;;;6.52;100.00;96833.19;5072030;28;20206;-62
2022/12/05 10:21:31;;;;;;;5.77;4.27;;;;;;;6.53;100.00;96829.63;5064195;28;20215;-62
2022/12/05 10:23:59;;;;;;;5.90;4.80;;;;;;;6.46;100.00;96817.91;5059848;28;20532;-62
2022/12/05 10:26:29;;;;;;;4.27;3.87;;;;;;;6.51;100.00;96810.53;5070309;28;20203;-62
2022/12/05 10:28:59;;;;;;;4.70;4.30;;;;;;;6.51;100.00;96815.78;5069187;28;20190;-62
2022/12/05 10:31:28;;;;;;;4.43;4.03;;;;;;;6.62;100.00;96812.34;5056774;28;20207;-62
2022/12/05 10:34:02;;;;;;;4.00;3.70;;;;;;;6.63;100.00;96806.97;5062322;28;20203;-62
2022/12/05 10:36:30;;;;;;;4.10;3.70;;;;;;;6.70;100.00;96799.47;5056160;28;20195;-62
2022/12/05 10:38:57;;;;;;;4.13;3.73;;;;;;;6.72;100.00;96806.28;5056530;28;20195;-62
2022/12/05 10:41:24;;;;;;;4.07;3.73;;;;;;;6.77;100.00;96806.75;5062084;28;20307;-62
2022/12/05 10:43:52;;;;;;;4.23;3.87;;;;;;;6.83;100.00;96808.97;5060501;28;20195;-62
2022/12/05 10:46:21;;;;;;;5.57;4.80;;;;;;;6.85;100.00;96809.66;5065565;28;20666;-62
2022/12/05 10:48:47;;;;;;;5.67;5.17;;;;;;;6.90;100.00;96802.28;5062883;28;20245;-62
2022/12/05 10:51:15;;;;;;;7.23;6.37;;;;;;;6.88;100.00;96803.31;5066793;28;20210;-62
2022/12/05 10:53:43;;;;;;;6.93;6.10;;;;;;;6.85;100.00;96803.56;5069875;28;20202;-62
2022/12/05 10:56:37;;;;;;;9.33;7.13;;;;;;;6.80;100.00;96809.16;5055920;28;20211;-62
2022/12/05 10:59:08;;;;;;;7.07;6.30;;;;;;;6.85;100.00;96808.81;5056261;28;20191;-62
2022/12/05 11:01:35;;;;;;;6.77;5.70;;;;;;;6.93;100.00;96802.03;5069550;28;20194;-62
2022/12/05 11:04:07;;;;;;;4.90;4.43;;;;;;;6.93;100.00;96802.03;5065331;28;20275;-62
2022/12/05 11:06:35;;;;;;;5.87;4.40;;;;;;;6.88;100.00;96804.16;5063581;28;20206;-62
2022/12/05 11:09:05;;;;;;;4.20;3.90;;;;;;;6.95;100.00;96805.38;5067669;28;20211;-62
2022/12/05 11:11:33;;;;;;;5.90;4.50;;;;;;;7.00;100.00;96811.13;5063275;28;20631;-63
2022/12/05 11:14:02;;;;;;;4.83;4.13;;;;;;;7.03;100.00;96815.31;5068073;28;20234;-62
2022/12/05 11:16:32;;;;;;;5.00;4.50;;;;;;;7.02;100.00;96818.88;5070297;28;20269;-62
2022/12/05 11:19:18;;;;;;;4.23;3.93;;;;;;;7.00;100.00;96807.66;5057291;28;20292;-63
2022/12/05 11:21:45;;;;;;;5.20;4.70;;;;;;;7.06;100.00;96807.19;5055332;28;20199;-62
2022/12/05 11:24:21;;;;;;;4.50;4.10;;;;;;;7.01;99.64;96804.09;5069353;28;20217;-62
2022/12/05 11:26:48;;;;;;;4.63;4.23;;;;;;;7.04;100.00;96809.09;5064936;28;20194;-64
2022/12/05 11:29:29;;;;;;;4.57;4.17;;;;;;;7.00;100.00;96808.50;5071934;28;20536;-63
2022/12/05 11:31:57;;;;;;;4.50;4.10;;;;;;;7.05;100.00;96799.44;5058597;28;20240;-63
2022/12/05 11:34:26;;;;;;;4.70;4.30;;;;;;;7.07;100.00;96802.78;5056104;28;20666;-64
2022/12/05 11:36:54;;;;;;;6.57;4.70;;;;;;;7.02;100.00;96805.75;5055874;28;20235;-63
2022/12/05 11:39:21;;;;;;;4.93;4.53;;;;;;;7.06;100.00;96811.59;5061016;28;20646;-63